Time;durP1;ratioP1;P1;durP2;ratioP2;P2;SDS_P1;SDS_P2;PMS_P1;PMS_P2;Temp;Humidity;BMP_temperature;BMP_pressure;BME280_temperature;BME280_humidity;BME280_pressure;Samples;Min_cycle;Max_cycle;Signal;HPM_P1;HPM_P2
2023/04/18 00:01:56;;;;;;;13.70;8.67;;;;;;;10.75;100.00;-7887.84;5133895;27;20206;-60
2023/04/18 00:04:24;;;;;;;14.10;8.50;;;;;;;10.76;100.00;-6293.28;5133611;27;20612;-60
2023/04/18 00:06:52;;;;;;;9.20;8.40;;;;;;;10.73;100.00;-4697.81;5133496;27;20193;-61
2023/04/18 00:09:19;;;;;;;10.93;8.00;;;;;;;10.55;100.00;-5335.44;5133741;27;20191;-61
2023/04/18 00:11:46;;;;;;;13.73;9.03;;;;;;;10.67;100.00;-6611.81;5133422;27;20182;-60
2023/04/18 00:14:13;;;;;;;9.77;8.77;;;;;;;10.45;100.00;-7248.16;5133200;27;20269;-60
2023/04/18 00:16:41;;;;;;;13.37;8.30;;;;;;;10.86;100.00;-7250.81;5133597;27;20265;-60
2023/04/18 00:19:08;;;;;;;10.10;8.10;;;;;;;10.63;100.00;-5973.69;5133333;27;20179;-61
2023/04/18 00:21:36;;;;;;;15.73;9.27;;;;;;;10.63;100.00;-5973.69;5133240;27;20206;-61
2023/04/18 00:24:04;;;;;;;9.60;8.70;;;;;;;10.82;100.00;-6931.63;5133196;27;20179;-61
2023/04/18 00:26:31;;;;;;;15.77;8.90;;;;;;;10.93;100.00;-7570.28;5133233;27;20270;-60
2023/04/18 00:28:58;;;;;;;10.23;9.13;;;;;;;10.90;100.00;-6932.13;5133232;27;20197;-60
2023/04/18 00:31:25;;;;;;;9.33;8.27;;;;;;;10.76;100.00;-5336.16;5133376;27;20187;-60
2023/04/18 00:33:52;;;;;;;9.70;8.80;;;;;;;10.72;100.00;-4378.66;5133339;27;20237;-60
2023/04/18 00:36:19;;;;;;;9.23;8.37;;;;;;;10.76;100.00;-5017.03;5133359;27;20241;-60
2023/04/18 00:38:46;;;;;;;9.10;8.37;;;;;;;10.87;100.00;-5336.53;5132984;27;20193;-61
2023/04/18 00:41:15;;;;;;;17.80;9.90;;;;;;;10.93;100.00;-5017.53;5133024;27;20206;-60
2023/04/18 00:43:42;;;;;;;11.63;10.60;;;;;;;10.88;100.00;-4059.69;5133164;27;20582;-61
2023/04/18 00:46:09;;;;;;;9.23;8.40;;;;;;;10.78;100.00;-4059.53;5133124;27;20266;-61
2023/04/18 00:48:37;;;;;;;12.53;7.90;;;;;;;10.71;100.00;-1824.31;5132860;27;20191;-60
2023/04/18 00:51:06;;;;;;;8.73;8.13;;;;;;;10.71;100.00;-1824.31;5133078;27;20617;-60
2023/04/18 00:53:33;;;;;;;9.00;8.17;;;;;;;10.56;100.00;-1505.28;5132705;27;20222;-61
2023/04/18 00:56:00;;;;;;;9.70;7.60;;;;;;;10.58;100.00;-1185.84;5132722;27;20201;-60
2023/04/18 00:58:30;;;;;;;8.83;7.93;;;;;;;10.50;100.00;-3420.91;5132930;27;20274;-62
2023/04/18 01:00:57;;;;;;;9.50;8.47;;;;;;;10.47;100.00;-4697.19;5132617;27;20229;-60
2023/04/18 01:03:25;;;;;;;10.07;8.47;;;;;;;10.71;100.00;-5335.97;5132570;27;20717;-61
2023/04/18 01:05:54;;;;;;;15.83;8.83;;;;;;;10.76;100.00;-4059.50;5132202;27;20222;-61
2023/04/18 01:08:22;;;;;;;16.87;8.77;;;;;;;10.87;100.00;-3421.03;5132843;27;20183;-61
2023/04/18 01:10:49;;;;;;;9.83;8.73;;;;;;;10.92;100.00;-3101.69;5132487;27;20187;-61
2023/04/18 01:13:18;;;;;;;13.20;9.00;;;;;;;10.76;100.00;-2782.38;5132603;27;20661;-61
2023/04/18 01:15:50;;;;;;;12.53;8.67;;;;;;;10.73;100.00;-2143.69;5132455;27;20182;-60
2023/04/18 01:18:19;;;;;;;9.40;8.50;;;;;;;10.90;100.00;-2143.38;5132780;27;20673;-61
2023/04/18 01:20:48;;;;;;;16.23;8.80;;;;;;;10.82;100.00;-1824.06;5132640;28;20669;-61
2023/04/18 01:23:16;;;;;;;10.47;8.40;;;;;;;10.80;100.00;-1504.63;5132647;28;20187;-60
2023/04/18 01:25:45;;;;;;;9.40;8.50;;;;;;;10.82;100.00;-2462.94;5132292;28;20273;-60
2023/04/18 01:28:14;;;;;;;16.03;8.60;;;;;;;10.86;100.00;-2462.91;5132309;28;20270;-60
2023/04/18 01:30:41;;;;;;;10.33;8.73;;;;;;;10.72;100.00;-2782.41;5132281;28;20182;-61
2023/04/18 01:33:08;;;;;;;8.83;7.97;;;;;;;10.74;100.00;-2782.38;5132252;28;20576;-61
2023/04/18 01:35:35;;;;;;;8.63;7.97;;;;;;;10.70;100.00;-3101.72;5132553;28;20644;-62
2023/04/18 01:38:02;;;;;;;9.57;8.53;;;;;;;10.79;100.00;-2782.34;5132498;28;20262;-60
2023/04/18 01:40:30;;;;;;;9.43;8.57;;;;;;;10.64;100.00;-3101.72;5132341;28;20263;-61
2023/04/18 01:42:58;;;;;;;9.80;8.10;;;;;;;10.56;100.00;-1824.66;5132114;28;20194;-61
2023/04/18 01:45:25;;;;;;;12.07;8.37;;;;;;;10.46;100.00;-3420.91;5132179;28;20193;-61
2023/04/18 01:47:52;;;;;;;9.80;9.00;;;;;;;10.43;100.00;-4059.06;5132159;28;20191;-60
2023/04/18 01:50:19;;;;;;;9.83;8.90;;;;;;;10.42;100.00;-4378.09;5132225;28;20234;-61
2023/04/18 01:52:46;;;;;;;10.50;9.13;;;;;;;10.41;100.00;-4697.06;5132091;28;20186;-60
2023/04/18 01:55:13;;;;;;;10.70;9.53;;;;;;;10.27;100.00;-5653.31;5132084;28;20270;-60
2023/04/18 01:57:40;;;;;;;10.80;9.93;;;;;;;10.43;100.00;-6291.66;5132283;28;20218;-61
2023/04/18 02:00:10;;;;;;;10.43;9.43;;;;;;;10.39;100.00;-6291.47;5132276;28;20218;-60
2023/04/18 02:02:37;;;;;;;17.30;10.27;;;;;;;10.46;100.00;-6610.66;5131945;28;20223;-60
2023/04/18 02:05:04;;;;;;;12.63;10.03;;;;;;;10.38;100.00;-6291.41;5132323;28;20237;-61
2023/04/18 02:07:31;;;;;;;10.83;9.50;;;;;;;10.29;100.00;-6609.72;5131899;28;20277;-61
2023/04/18 02:09:58;;;;;;;11.80;9.23;;;;;;;10.42;100.00;-7248.00;5131941;28;20222;-60
2023/04/18 02:12:25;;;;;;;17.33;10.43;;;;;;;10.41;100.00;-6610.41;5131731;28;20193;-60
2023/04/18 02:14:53;;;;;;;11.27;9.93;;;;;;;10.38;100.00;-7247.72;5131677;28;20749;-60
2023/04/18 02:17:22;;;;;;;13.67;9.97;;;;;;;10.30;100.00;-6928.47;5133428;27;20193;-61
2023/04/18 02:19:51;;;;;;;17.10;10.47;;;;;;;10.43;100.00;-5972.84;5135964;27;20628;-61
2023/04/18 02:22:18;;;;;;;13.23;10.60;;;;;;;10.35;100.00;-4696.91;5135887;27;20203;-60
2023/04/18 02:24:45;;;;;;;11.27;9.83;;;;;;;10.57;100.00;-4378.34;5135591;27;20185;-61
2023/04/18 02:27:12;;;;;;;14.97;9.87;;;;;;;10.56;100.00;-4059.22;5135414;27;20187;-61
2023/04/18 02:29:39;;;;;;;11.83;10.67;;;;;;;10.45;100.00;-3740.00;5135469;27;20270;-60
2023/04/18 02:32:07;;;;;;;11.57;10.40;;;;;;;10.35;100.00;-3420.84;5135748;27;20278;-61
2023/04/18 02:34:36;;;;;;;12.60;9.97;;;;;;;10.41;100.00;-4059.03;5135368;27;20187;-61
2023/04/18 02:37:03;;;;;;;13.23;10.50;;;;;;;10.34;100.00;-3420.84;5135939;27;20206;-60
2023/04/18 02:39:30;;;;;;;13.80;10.37;;;;;;;10.23;100.00;-3739.81;5135579;27;20223;-62
2023/04/18 02:41:57;;;;;;;14.10;10.23;;;;;;;10.04;100.00;-4696.16;5135535;27;20692;-61
2023/04/18 02:44:24;;;;;;;14.33;10.80;;;;;;;10.31;100.00;-5015.72;5135501;27;20193;-61
2023/04/18 02:46:51;;;;;;;18.00;10.50;;;;;;;10.41;100.00;-4378.06;5135243;27;20633;-60
2023/04/18 02:49:18;;;;;;;17.67;10.17;;;;;;;10.41;100.00;-3739.97;5135452;27;20225;-61
2023/04/18 02:51:46;;;;;;;14.47;9.57;;;;;;;9.93;100.00;-3739.53;5135339;27;20702;-61
2023/04/18 02:54:13;;;;;;;16.80;11.00;;;;;;;10.17;100.00;-5334.13;5135282;27;20274;-61
2023/04/18 02:56:41;;;;;;;14.10;11.53;;;;;;;10.17;100.00;-5015.31;5135200;27;20186;-61
2023/04/18 02:59:08;;;;;;;14.60;10.17;;;;;;;10.45;100.00;-5016.16;5135141;27;20266;-61
2023/04/18 03:01:35;;;;;;;15.80;11.03;;;;;;;10.48;100.00;-4059.13;5135055;27;20238;-60
2023/04/18 03:04:02;;;;;;;14.67;10.63;;;;;;;10.32;100.00;-3101.78;5134913;27;20270;-61
2023/04/18 03:06:30;;;;;;;11.50;10.43;;;;;;;10.40;100.00;-3420.88;5134813;27;20243;-61
2023/04/18 03:08:59;;;;;;;17.40;11.47;;;;;;;9.94;100.00;-4377.16;5135070;27;20629;-60
2023/04/18 03:11:26;;;;;;;15.53;10.67;;;;;;;10.43;100.00;-4697.09;5134722;27;20187;-60
2023/04/18 03:13:53;;;;;;;15.27;10.60;;;;;;;10.41;100.00;-3739.97;5134381;27;20233;-60
2023/04/18 03:16:21;;;;;;;13.17;11.23;;;;;;;10.21;100.00;-5015.41;5134521;27;20302;-61
2023/04/18 03:18:48;;;;;;;15.10;10.23;;;;;;;10.16;100.00;-6290.28;5134497;27;20215;-61
2023/04/18 03:21:15;;;;;;;11.50;10.50;;;;;;;10.25;100.00;-7884.09;5134398;27;20203;-62
2023/04/18 03:23:42;;;;;;;13.73;10.17;;;;;;;10.24;100.00;-7884.03;5134755;27;20646;-60
2023/04/18 03:26:11;;;;;;;13.43;9.97;;;;;;;10.25;100.00;-7565.50;5134478;27;20193;-60
2023/04/18 03:28:38;;;;;;;11.27;9.73;;;;;;;10.39;100.00;-7566.50;5134306;27;20187;-61
2023/04/18 03:31:05;;;;;;;17.10;10.00;;;;;;;10.48;100.00;-6929.59;5134284;27;20273;-61
2023/04/18 03:33:32;;;;;;;16.80;10.40;;;;;;;10.49;100.00;-6291.97;5134582;27;20179;-61
2023/04/18 03:35:59;;;;;;;10.60;9.70;;;;;;;10.67;100.00;-4697.69;5134325;27;20179;-60
2023/04/18 03:38:26;;;;;;;18.80;10.20;;;;;;;10.76;100.00;-4378.72;5134205;27;20189;-61
2023/04/18 03:40:53;;;;;;;11.67;10.30;;;;;;;10.63;100.00;-2143.84;5134016;27;20269;-61
2023/04/18 03:43:22;;;;;;;10.33;9.47;;;;;;;10.40;100.00;-2463.44;5134053;27;20187;-61
2023/04/18 03:45:49;;;;;;;12.63;9.83;;;;;;;10.56;100.00;-3420.94;5134121;27;20232;-60
2023/04/18 03:48:16;;;;;;;11.43;10.33;;;;;;;10.53;100.00;-3420.94;5134319;27;20182;-61
2023/04/18 03:50:43;;;;;;;12.13;11.20;;;;;;;10.42;100.00;-4059.03;5134255;27;20179;-60
2023/04/18 03:53:10;;;;;;;16.37;9.87;;;;;;;10.52;100.00;-4697.31;5133885;27;20266;-62
2023/04/18 03:55:37;;;;;;;13.57;10.77;;;;;;;10.15;100.00;-5015.25;5133770;27;20250;-61
2023/04/18 03:58:05;;;;;;;11.60;10.43;;;;;;;10.09;100.00;-8201.38;5133992;27;20319;-60
2023/04/18 04:00:33;;;;;;;13.70;10.33;;;;;;;10.05;100.00;-10429.44;5133896;27;20208;-63
2023/04/18 04:03:00;;;;;;;11.60;10.63;;;;;;;10.23;100.00;-10431.56;5115515;27;20300;-60
2023/04/18 04:05:28;;;;;;;13.43;11.03;;;;;;;10.22;100.00;-9157.88;5133943;27;20189;-60
2023/04/18 04:07:55;;;;;;;13.00;11.70;;;;;;;10.27;100.00;-8839.88;5133722;27;20187;-60
2023/04/18 04:10:22;;;;;;;12.13;11.00;;;;;;;10.33;100.00;-8840.41;5133547;27;20187;-60
2023/04/18 04:12:49;;;;;;;12.03;10.73;;;;;;;10.35;100.00;-8203.50;5133590;27;20195;-61
2023/04/18 04:15:16;;;;;;;13.13;10.33;;;;;;;10.02;100.00;-8519.22;5133401;27;20274;-60
2023/04/18 04:17:44;;;;;;;15.53;11.27;;;;;;;9.99;100.00;-8837.34;5133582;27;20182;-61
2023/04/18 04:20:13;;;;;;;16.50;11.50;;;;;;;9.90;100.00;-10109.56;5133384;27;20274;-61
2023/04/18 04:22:40;;;;;;;19.50;10.90;;;;;;;9.94;100.00;-10428.22;5133648;27;20660;-60
2023/04/18 04:25:07;;;;;;;12.50;11.30;;;;;;;10.06;100.00;-10429.63;5133488;27;20557;-61
2023/04/18 04:27:35;;;;;;;18.03;12.07;;;;;;;10.19;100.00;-10112.78;5133229;27;20194;-60
2023/04/18 04:30:03;;;;;;;15.03;11.20;;;;;;;10.11;100.00;-7564.50;5133122;27;20191;-61
2023/04/18 04:32:31;;;;;;;13.93;10.77;;;;;;;10.07;100.00;-8201.25;5132932;27;20179;-61
2023/04/18 04:35:00;;;;;;;13.73;10.53;;;;;;;10.17;100.00;-8839.00;5133035;27;20231;-60
2023/04/18 04:37:28;;;;;;;12.90;11.67;;;;;;;10.13;100.00;-9157.03;5133262;27;20269;-62
2023/04/18 04:39:55;;;;;;;12.33;11.23;;;;;;;10.31;100.00;-8521.75;5132305;27;20183;-61
2023/04/18 04:42:24;;;;;;;12.23;11.03;;;;;;;10.29;100.00;-8203.00;5133075;27;20586;-61
2023/04/18 04:44:52;;;;;;;13.17;11.13;;;;;;;10.43;100.00;-7885.47;5132816;27;20634;-61
2023/04/18 04:47:19;;;;;;;15.37;10.63;;;;;;;10.44;100.00;-6610.56;5132889;27;20182;-61
2023/04/18 04:49:46;;;;;;;11.90;10.70;;;;;;;10.60;100.00;-5973.56;5132675;27;20193;-61
2023/04/18 04:52:15;;;;;;;13.53;11.63;;;;;;;10.45;100.00;-5335.09;5132702;27;20260;-60
2023/04/18 04:54:44;;;;;;;11.63;10.53;;;;;;;10.72;100.00;-4378.66;5133001;27;20701;-61
2023/04/18 04:57:11;;;;;;;13.50;11.63;;;;;;;10.74;100.00;-3101.72;5132661;27;20186;-61
2023/04/18 04:59:38;;;;;;;15.50;11.00;;;;;;;10.69;100.00;-2143.72;5133007;27;20198;-61
2023/04/18 05:02:05;;;;;;;14.33;10.93;;;;;;;10.47;100.00;-1824.84;5133153;27;20295;-61
2023/04/18 05:04:32;;;;;;;22.63;11.83;;;;;;;10.42;100.00;-4697.09;5132555;27;20187;-61
2023/04/18 05:07:00;;;;;;;16.70;11.27;;;;;;;10.36;100.00;-5653.66;5132728;27;20627;-61
2023/04/18 05:09:28;;;;;;;18.80;11.80;;;;;;;10.52;100.00;-6611.00;5132728;27;20625;-61
2023/04/18 05:11:55;;;;;;;14.23;11.17;;;;;;;10.23;100.00;-5334.34;5132389;27;20186;-60
2023/04/18 05:14:23;;;;;;;11.27;10.03;;;;;;;9.95;100.00;-7244.88;5132407;27;20226;-59
2023/04/18 05:16:50;;;;;;;13.47;10.40;;;;;;;10.14;100.00;-9793.88;5132631;27;20273;-60
2023/04/18 05:19:17;;;;;;;15.40;11.13;;;;;;;10.21;100.00;-10431.28;5132468;27;20285;-62
2023/04/18 05:21:44;;;;;;;10.20;9.33;;;;;;;10.00;100.00;-10110.69;5132553;28;20676;-61
2023/04/18 05:24:11;;;;;;;12.63;9.67;;;;;;;10.05;100.00;-10429.44;5132970;28;20214;-61
2023/04/18 05:26:39;;;;;;;10.67;9.70;;;;;;;10.23;100.00;-11068.09;5132416;28;20231;-61
2023/04/18 05:29:06;;;;;;;14.90;9.60;;;;;;;10.22;100.00;-10431.41;5132391;28;20230;-60
2023/04/18 05:31:36;;;;;;;10.77;9.73;;;;;;;10.07;100.00;-9474.81;5132481;28;20277;-62
2023/04/18 05:34:03;;;;;;;15.03;9.20;;;;;;;10.80;100.00;-7888.25;5133364;28;20222;-61
2023/04/18 05:36:30;;;;;;;17.33;9.27;;;;;;;10.89;100.00;-5655.75;5132580;28;20265;-61
2023/04/18 05:39:00;;;;;;;12.93;9.80;;;;;;;11.02;100.00;-2782.19;5132220;28;20240;-62
2023/04/18 05:41:27;;;;;;;12.47;9.57;;;;;;;11.20;100.00;735.09;5132300;28;20190;-61
2023/04/18 05:43:55;;;;;;;13.70;9.70;;;;;;;11.03;100.00;5535.00;5131723;28;20225;-61
2023/04/18 05:46:22;;;;;;;10.70;8.87;;;;;;;10.60;100.00;4888.84;5114053;28;20194;-61
2023/04/18 05:48:49;;;;;;;9.53;8.57;;;;;;;10.76;100.00;1691.53;5132383;28;20609;-61
2023/04/18 05:51:16;;;;;;;10.17;9.27;;;;;;;10.86;100.00;732.94;5133752;27;20627;-60
2023/04/18 05:53:43;;;;;;;12.73;10.93;;;;;;;11.09;100.00;-544.78;5137166;27;20213;-60
2023/04/18 05:56:10;;;;;;;12.40;9.90;;;;;;;11.22;100.00;1055.22;5137265;27;20179;-60
2023/04/18 05:58:37;;;;;;;25.97;11.73;;;;;;;11.32;100.00;2336.16;5135808;27;20273;-60
2023/04/18 06:01:06;;;;;;;16.00;11.03;;;;;;;11.58;100.00;4581.16;5136076;27;20230;-60
2023/04/18 06:03:34;;;;;;;16.60;10.27;;;;;;;11.64;100.00;7467.78;5135862;27;20648;-60
2023/04/18 06:06:01;;;;;;;10.47;9.23;;;;;;;11.71;100.00;9715.59;5136211;27;20607;-62
2023/04/18 06:08:28;;;;;;;11.50;9.17;;;;;;;11.75;100.00;13893.06;5136060;27;20209;-60
2023/04/18 06:10:55;;;;;;;9.60;8.83;;;;;;;11.75;100.00;17431.41;5135520;27;20240;-61
2023/04/18 06:13:22;;;;;;;18.27;10.57;;;;;;;11.84;100.00;19688.13;5135684;27;20226;-61
2023/04/18 06:15:49;;;;;;;14.73;11.53;;;;;;;11.94;100.00;20336.03;5135855;27;20259;-61
2023/04/18 06:18:18;;;;;;;14.27;8.67;;;;;;;12.00;100.00;23562.47;5135516;27;20274;-62
2023/04/18 06:20:45;;;;;;;11.37;9.67;;;;;;;11.96;100.00;29048.25;5135653;27;20178;-62
2023/04/18 06:23:12;;;;;;;15.43;8.83;;;;;;;12.03;100.00;30021.38;5135719;27;20257;-61
2023/04/18 06:25:41;;;;;;;18.43;10.43;;;;;;;12.08;100.00;30347.31;5135572;27;20195;-61
2023/04/18 06:28:08;;;;;;;18.20;10.23;;;;;;;11.74;100.00;29036.63;5135686;27;20225;-61
2023/04/18 06:30:36;;;;;;;31.23;11.70;;;;;;;12.26;100.00;29064.06;5135886;27;20656;-60
2023/04/18 06:33:03;;;;;;;10.37;9.57;;;;;;;12.28;100.00;33269.47;5135366;27;20277;-61
2023/04/18 06:35:31;;;;;;;11.40;10.27;;;;;;;12.25;100.00;39422.09;5135605;27;20560;-60
2023/04/18 06:37:59;;;;;;;19.20;9.87;;;;;;;12.27;100.00;37479.03;5135493;27;20572;-60
2023/04/18 06:40:25;;;;;;;10.17;9.13;;;;;;;12.10;100.00;37467.38;5134932;27;20178;-61
2023/04/18 06:42:52;;;;;;;9.80;8.80;;;;;;;12.31;100.00;37805.44;5135119;27;20242;-61
2023/04/18 06:45:20;;;;;;;10.47;9.47;;;;;;;12.46;100.00;39760.72;5135035;27;20233;-60
2023/04/18 06:47:48;;;;;;;13.40;10.33;;;;;;;12.63;100.00;40097.50;5135007;27;20193;-62
2023/04/18 06:50:15;;;;;;;10.37;9.40;;;;;;;12.75;100.00;43352.63;5134963;27;20187;-61
2023/04/18 06:52:47;;;;;;;9.57;8.67;;;;;;;12.71;100.00;49852.50;5135019;27;20218;-60
2023/04/18 06:55:14;;;;;;;11.23;10.07;;;;;;;12.84;100.00;49538.31;5135681;27;20277;-61
2023/04/18 06:57:41;;;;;;;9.73;8.93;;;;;;;12.40;100.00;60577.81;5135032;27;20255;-62
2023/04/18 07:00:10;;;;;;;11.03;8.17;;;;;;;12.64;100.00;57339.44;5135015;27;20205;-60
2023/04/18 07:02:38;;;;;;;9.63;8.70;;;;;;;12.69;100.00;52455.81;5134187;27;20206;-62
2023/04/18 07:05:06;;;;;;;9.83;8.87;;;;;;;13.00;100.00;52809.09;5135161;27;20633;-61
2023/04/18 07:07:34;;;;;;;11.03;8.70;;;;;;;13.04;100.00;58684.34;5134909;27;20210;-61
2023/04/18 07:10:03;;;;;;;9.33;7.27;;;;;;;13.09;100.00;74070.63;5135015;27;20374;-60
2023/04/18 07:12:30;;;;;;;7.97;7.37;;;;;;;12.71;100.00;73366.88;5134790;27;20179;-61
2023/04/18 07:14:57;;;;;;;8.77;8.07;;;;;;;13.02;100.00;63256.53;5134880;27;20238;-60
2023/04/18 07:17:24;;;;;;;9.77;7.67;;;;;;;12.69;100.00;64527.72;5134812;27;20218;-60
2023/04/18 07:19:51;;;;;;;8.27;7.67;;;;;;;12.87;100.00;54100.69;5134632;27;20183;-61
2023/04/18 07:22:18;;;;;;;10.03;8.80;;;;;;;13.13;100.00;54125.63;5134752;27;20210;-60
2023/04/18 07:24:45;;;;;;;10.50;8.80;;;;;;;13.21;100.00;64258.47;5134310;27;20198;-62
2023/04/18 07:27:15;;;;;;;8.67;7.87;;;;;;;13.04;100.00;71113.31;5134704;27;20198;-62
2023/04/18 07:29:42;;;;;;;9.47;8.10;;;;;;;13.20;100.00;86573.09;5134152;27;20190;-61
2023/04/18 07:32:09;;;;;;;8.20;7.40;;;;;;;13.47;100.00;85294.97;5134120;27;20214;-60
2023/04/18 07:34:36;;;;;;;11.57;7.73;;;;;;;13.68;100.00;95880.84;5134203;27;20183;-61
2023/04/18 07:37:03;;;;;;;9.23;7.93;;;;;;;13.80;100.00;110138.66;5134548;27;20182;-60
2023/04/18 07:39:34;;;;;;;13.23;8.30;;;;;;;13.87;100.00;128115.72;5134174;27;20217;-60
2023/04/18 07:42:01;;;;;;;9.70;7.80;;;;;;;14.04;100.00;130489.97;5133935;27;20251;-61
2023/04/18 07:44:31;;;;;;;8.17;7.40;;;;;;;14.00;100.00;135157.75;5134120;27;20243;-61
2023/04/18 07:46:58;;;;;;;7.33;6.80;;;;;;;13.80;100.00;126100.09;5133996;27;20179;-61
2023/04/18 07:49:25;;;;;;;9.77;8.77;;;;;;;13.55;100.00;111418.75;5133991;27;20668;-61
2023/04/18 07:51:52;;;;;;;13.23;8.30;;;;;;;13.86;100.00;120451.78;5133907;27;20235;-62
2023/04/18 07:54:19;;;;;;;13.57;7.97;;;;;;;13.57;100.00;121057.84;5133796;27;20277;-61
2023/04/18 07:56:46;;;;;;;14.17;8.20;;;;;;;13.81;100.00;127103.41;5133717;27;20202;-61
2023/04/18 07:59:13;;;;;;;26.50;8.93;;;;;;;14.04;100.00;131490.53;5134134;27;20574;-62
2023/04/18 08:01:42;;;;;;;8.10;7.60;;;;;;;13.93;100.00;139153.59;5133833;27;20239;-60
2023/04/18 08:04:09;;;;;;;10.30;8.17;;;;;;;13.51;100.00;101803.31;5133890;27;20255;-62
2023/04/18 08:06:36;;;;;;;15.70;8.27;;;;;;;13.78;100.00;91273.41;5133650;27;20217;-61
2023/04/18 08:09:04;;;;;;;16.80;7.67;;;;;;;13.79;100.00;88307.00;5133714;27;20204;-60
2023/04/18 08:11:31;;;;;;;7.97;7.20;;;;;;;13.69;100.00;84009.75;5133414;27;20219;-60
2023/04/18 08:13:58;;;;;;;8.50;7.90;;;;;;;13.61;100.00;89929.16;5132898;27;20222;-59
2023/04/18 08:16:26;;;;;;;7.73;7.13;;;;;;;13.65;100.00;82357.53;5132873;27;20193;-60
2023/04/18 08:18:54;;;;;;;19.37;9.53;;;;;;;13.69;100.00;84009.75;5133246;27;20186;-60
2023/04/18 08:21:21;;;;;;;19.13;11.40;;;;;;;13.62;100.00;96201.44;5133562;27;20622;-61
2023/04/18 08:23:51;;;;;;;27.80;10.83;;;;;;;13.46;100.00;105766.78;5133022;27;20275;-61
2023/04/18 08:26:19;;;;;;;17.00;10.33;;;;;;;13.37;100.00;106745.09;5133395;27;20194;-60
2023/04/18 08:28:46;;;;;;;14.80;10.00;;;;;;;13.30;100.00;99452.56;5132855;27;20278;-59
2023/04/18 08:31:13;;;;;;;19.00;10.90;;;;;;;13.25;100.00;91192.53;5133155;27;20251;-63
2023/04/18 08:33:40;;;;;;;20.13;9.70;;;;;;;13.09;100.00;84911.28;5133269;27;20554;-60
2023/04/18 08:36:10;;;;;;;24.60;10.00;;;;;;;12.96;100.00;74054.13;5132954;27;20236;-60
2023/04/18 08:38:37;;;;;;;21.60;10.27;;;;;;;12.63;100.00;67463.75;5133144;27;20179;-60
2023/04/18 08:41:05;;;;;;;13.97;9.80;;;;;;;12.66;100.00;64524.38;5133154;27;20191;-61
2023/04/18 08:43:32;;;;;;;18.63;10.17;;;;;;;12.63;100.00;55382.66;5132733;27;20279;-62
2023/04/18 08:46:00;;;;;;;17.00;8.77;;;;;;;12.55;100.00;46586.84;5133218;27;20198;-60
2023/04/18 08:48:28;;;;;;;21.07;10.23;;;;;;;12.33;100.00;40725.31;5133250;27;20237;-61
2023/04/18 08:50:58;;;;;;;12.83;9.37;;;;;;;12.57;100.00;36850.34;5133371;27;20187;-60
2023/04/18 08:53:27;;;;;;;13.77;9.13;;;;;;;12.54;100.00;39117.97;5132659;27;20233;-60
2023/04/18 08:55:55;;;;;;;14.17;9.63;;;;;;;12.50;100.00;32958.84;5114744;27;20265;-60
2023/04/18 08:58:25;;;;;;;15.90;8.77;;;;;;;12.49;100.00;30045.81;5132704;27;20190;-61
2023/04/18 09:00:53;;;;;;;19.17;9.80;;;;;;;12.52;100.00;29724.03;5132372;27;20214;-61
2023/04/18 09:03:39;;;;;;;23.63;10.83;;;;;;;12.57;100.00;26170.75;5132571;27;20665;-61
2023/04/18 09:06:12;;;;;;;22.17;9.97;;;;;;;12.80;100.00;26181.81;5132636;27;20227;-60
2023/04/18 09:08:43;;;;;;;17.03;9.70;;;;;;;12.82;100.00;32653.63;5132456;27;20263;-60
2023/04/18 09:11:24;;;;;;;21.93;9.93;;;;;;;12.96;100.00;31042.56;5132809;27;20220;-60
2023/04/18 09:13:54;;;;;;;22.50;10.50;;;;;;;13.02;100.00;35258.06;5132591;27;20218;-61
2023/04/18 09:16:22;;;;;;;20.10;11.00;;;;;;;13.21;100.00;35594.34;5132491;27;20183;-60
2023/04/18 09:19:10;;;;;;;12.03;10.83;;;;;;;13.58;100.00;44391.22;5132367;27;20183;-61
2023/04/18 09:21:39;;;;;;;15.67;10.90;;;;;;;13.64;100.00;61033.19;5132339;27;20193;-60
2023/04/18 09:24:23;;;;;;;14.70;10.83;;;;;;;13.58;100.00;60700.41;5132282;28;20210;-61
2023/04/18 09:26:52;;;;;;;11.40;10.20;;;;;;;13.89;100.00;64005.25;5131931;27;20186;-61
2023/04/18 09:29:21;;;;;;;14.17;10.30;;;;;;;14.30;100.00;75536.72;5132533;28;20210;-63
2023/04/18 09:31:59;;;;;;;15.40;10.33;;;;;;;14.38;100.00;92026.75;5132689;28;20179;-59
2023/04/18 09:34:27;;;;;;;11.63;10.50;;;;;;;14.78;100.00;112647.41;5132558;28;20228;-61
2023/04/18 09:37:08;;;;;;;20.23;10.20;;;;;;;15.22;100.00;125398.75;5132568;28;20259;-60
2023/04/18 09:39:38;;;;;;;16.90;10.93;;;;;;;15.62;100.00;140372.34;5132635;28;20561;-61
2023/04/18 09:42:05;;;;;;;13.13;10.10;;;;;;;15.55;100.00;149946.03;5132740;28;20749;-60
2023/04/18 09:44:32;;;;;;;15.40;10.50;;;;;;;15.95;100.00;150046.31;5132283;28;20213;-62
2023/04/18 09:46:59;;;;;;;17.10;9.63;;;;;;;16.05;100.00;150070.41;5131945;28;20222;-60
2023/04/18 09:49:26;;;;;;;15.30;9.73;;;;;;;16.08;100.00;150078.06;5132119;28;20633;-61
2023/04/18 09:51:55;;;;;;;7.53;6.93;;;;;;;15.93;100.00;150042.50;5131787;28;20277;-60
2023/04/18 09:54:24;;;;;;;6.77;6.20;;;;;;;15.58;100.00;149953.63;5131762;28;20226;-60
2023/04/18 09:56:55;;;;;;;7.07;6.63;;;;;;;15.58;100.00;149953.63;5131880;28;20189;-60
2023/04/18 09:59:46;;;;;;;9.53;6.50;;;;;;;15.62;100.00;149963.78;5131917;28;20556;-60
2023/04/18 10:02:19;;;;;;;7.60;5.97;;;;;;;14.94;100.00;149793.75;5131948;28;20183;-60
2023/04/18 10:04:47;;;;;;;11.27;6.93;;;;;;;14.78;100.00;149241.22;5131781;28;20199;-61
2023/04/18 10:07:16;;;;;;;9.07;6.53;;;;;;;14.96;100.00;132698.19;5132165;28;20193;-61
2023/04/18 10:09:46;;;;;;;7.00;6.40;;;;;;;15.41;100.00;148662.25;5132366;28;20607;-61
2023/04/18 10:12:17;;;;;;;7.43;6.77;;;;;;;15.88;100.00;150029.78;5132180;28;20647;-60
2023/04/18 10:14:45;;;;;;;8.23;7.70;;;;;;;16.04;100.00;150069.13;5131807;28;20634;-60
2023/04/18 10:17:14;;;;;;;7.10;6.43;;;;;;;16.52;100.00;150188.47;5131986;28;20190;-64
2023/04/18 10:19:43;;;;;;;7.23;6.63;;;;;;;16.88;100.00;150281.28;5132121;28;20207;-59
2023/04/18 10:22:11;;;;;;;6.47;5.87;;;;;;;16.63;100.00;150217.78;5132112;28;20187;-60
2023/04/18 10:24:55;;;;;;;6.00;5.50;;;;;;;16.95;100.00;150297.78;5131764;28;20649;-61
2023/04/18 10:28:04;;;;;;;6.33;5.90;;;;;;;17.23;100.00;150368.91;5131677;28;20223;-60
2023/04/18 10:30:55;;;;;;;6.10;5.77;;;;;;;16.47;100.00;150177.06;5083335;28;20194;-60
2023/04/18 10:33:31;;;;;;;7.43;6.73;;;;;;;16.47;100.00;150177.06;5090517;28;20190;-60
2023/04/18 10:36:14;;;;;;;8.40;5.67;;;;;;;16.54;100.00;150193.59;5131463;28;20190;-60
2023/04/18 10:38:46;;;;;;;6.97;6.27;;;;;;;16.37;100.00;150151.69;5133931;27;20191;-60
2023/04/18 10:41:14;;;;;;;11.37;5.90;;;;;;;16.73;100.00;150241.88;5135603;27;20574;-60
2023/04/18 10:44:17;;;;;;;8.23;5.70;;;;;;;17.28;100.00;150381.59;5135156;27;20202;-59
2023/04/18 10:47:24;;;;;;;12.60;6.63;;;;;;;17.76;100.00;150502.41;5128745;27;20286;-60
2023/04/18 10:50:10;;;;;;;6.27;5.77;;;;;;;18.10;100.00;150587.56;5135225;27;20641;-60
2023/04/18 10:52:37;;;;;;;11.23;5.70;;;;;;;18.17;100.00;150605.34;5134617;27;20186;-60
2023/04/18 10:55:19;;;;;;;8.17;4.90;;;;;;;18.53;100.00;150695.72;5135121;27;20189;-60
2023/04/18 10:57:47;;;;;;;12.07;5.50;;;;;;;18.16;100.00;150601.56;5134824;27;20591;-60
2023/04/18 11:00:16;;;;;;;7.93;4.83;;;;;;;17.86;100.00;150526.56;5134893;27;20182;-60
2023/04/18 11:02:54;;;;;;;9.27;5.70;;;;;;;17.15;100.00;150347.28;5135119;27;20187;-61
2023/04/18 11:05:24;;;;;;;6.07;5.57;;;;;;;17.15;100.00;150348.56;5134778;27;20259;-60
2023/04/18 11:07:51;;;;;;;10.23;5.80;;;;;;;17.02;100.00;150315.53;5134496;27;20267;-60
2023/04/18 11:10:20;;;;;;;13.03;5.63;;;;;;;17.80;100.00;150512.56;5134533;27;20194;-61
2023/04/18 11:12:48;;;;;;;6.47;5.70;;;;;;;18.25;100.00;150625.69;5133931;27;20205;-60
2023/04/18 11:15:16;;;;;;;6.63;5.47;;;;;;;17.99;100.00;150558.34;5134878;27;20586;-60
2023/04/18 11:17:44;;;;;;;6.13;5.73;;;;;;;18.00;100.00;150562.13;5134303;27;20187;-60
2023/04/18 11:20:14;;;;;;;8.50;5.00;;;;;;;17.72;100.00;150490.97;5134617;27;20237;-60
2023/04/18 11:22:46;;;;;;;6.83;4.73;;;;;;;18.41;100.00;150663.88;5134750;27;20594;-60